createdAt,value
2022-12-11T00:00:24.327Z,92888.97
2022-12-11T00:03:12.773Z,92906.03
2022-12-11T00:05:58.676Z,92876.59
2022-12-11T00:08:43.887Z,92887.69
2022-12-11T00:11:27.036Z,92892.78
2022-12-11T00:14:10.288Z,92886.44
2022-12-11T00:16:53.552Z,92860.66
2022-12-11T00:19:37.130Z,92876.75
2022-12-11T00:22:20.241Z,92865.97
2022-12-11T00:25:05.233Z,92854.28
2022-12-11T00:27:48.540Z,92863.66
2022-12-11T00:30:31.696Z,92857.59
2022-12-11T00:33:16.432Z,92861.31
2022-12-11T00:35:59.467Z,92857.69
2022-12-11T00:38:43.942Z,92871.72
2022-12-11T00:41:28.412Z,92825.16
2022-12-11T00:44:11.561Z,92844.63
2022-12-11T00:46:54.715Z,92848.25
2022-12-11T00:49:37.825Z,92859.97
2022-12-11T00:52:21.156Z,92858.72
2022-12-11T00:55:04.551Z,92826.59
2022-12-11T00:57:49.615Z,92855.16
2022-12-11T01:00:32.752Z,92850.94
2022-12-11T01:03:19.539Z,92842.81
2022-12-11T01:06:02.873Z,92864.09
2022-12-11T01:08:47.425Z,92870.50
2022-12-11T01:11:29.638Z,92865.97
2022-12-11T01:14:14.576Z,92871.09
2022-12-11T01:16:58.072Z,92879.88
2022-12-11T01:19:41.244Z,92868.38
2022-12-11T01:22:24.371Z,92830.19
2022-12-11T01:25:09.795Z,92862.47
2022-12-11T01:27:55.835Z,92896.97
2022-12-11T01:30:42.935Z,92895.56
2022-12-11T01:33:26.218Z,92891.63
2022-12-11T01:36:11.112Z,92897.31
2022-12-11T01:38:54.609Z,92865.03
2022-12-11T01:41:37.918Z,92871.44
2022-12-11T01:44:54.262Z,92858.44
2022-12-11T01:47:39.191Z,92822.66
2022-12-11T01:50:22.582Z,92839.09
2022-12-11T01:53:08.495Z,92887.03
2022-12-11T01:55:52.872Z,92858.16
2022-12-11T01:58:41.834Z,92863.38
2022-12-11T02:01:33.962Z,92868.84
2022-12-11T02:04:19.998Z,92890.47
2022-12-11T02:07:03.781Z,92867.94
2022-12-11T02:09:49.364Z,92871.88
2022-12-11T02:12:40.255Z,92852.28
2022-12-11T02:15:32.654Z,92849.09
2022-12-11T02:18:21.523Z,92860.47
2022-12-11T02:21:11.445Z,92856.81
2022-12-11T02:24:20.073Z,92848.19
2022-12-11T02:27:21.032Z,92823.16
2022-12-11T02:30:08.249Z,92823.78
2022-12-11T02:32:56.297Z,92811.75
2022-12-11T02:35:43.153Z,92802.41
2022-12-11T02:38:31.578Z,92779.28
2022-12-11T02:41:15.014Z,92789.47
2022-12-11T02:43:59.741Z,92771.09
2022-12-11T02:46:45.666Z,92770.41
2022-12-11T02:49:30.274Z,92768.69
2022-12-11T02:52:15.916Z,92748.22
2022-12-11T02:55:01.880Z,92776.22
2022-12-11T02:57:48.932Z,92774.81
2022-12-11T03:00:33.387Z,92779.88
2022-12-11T03:03:17.858Z,92797.94
2022-12-11T03:06:01.668Z,92813.06
2022-12-11T03:08:44.720Z,92803.41
2022-12-11T03:11:28.175Z,92813.72
2022-12-11T03:14:11.484Z,92792.19
2022-12-11T03:17:01.329Z,92798.88
2022-12-11T03:19:55.210Z,92781.13
2022-12-11T03:22:43.241Z,92756.88
2022-12-11T03:25:34.532Z,92771.63
2022-12-11T03:28:21.089Z,92791.31
2022-12-11T03:31:09.258Z,92763.81
2022-12-11T03:33:56.024Z,92771.69
2022-12-11T03:36:42.168Z,92772.53
2022-12-11T03:39:32.170Z,92782.03
2022-12-11T03:42:17.792Z,92818.13
2022-12-11T03:45:03.693Z,92815.19
2022-12-11T03:47:49.653Z,92834.03
2022-12-11T03:50:36.678Z,92820.59
2022-12-11T03:53:22.258Z,92816.56
2022-12-11T03:56:08.055Z,92824.34
2022-12-11T03:58:51.340Z,92819.47
2022-12-11T04:01:34.503Z,92817.94
2022-12-11T04:04:18.200Z,92841.28
2022-12-11T04:07:01.433Z,92826.72
2022-12-11T04:09:46.023Z,92832.97
2022-12-11T04:12:29.206Z,92822.03
2022-12-11T04:15:12.791Z,92833.59
2022-12-11T04:18:13.812Z,92861.53
2022-12-11T04:21:15.041Z,92854.28
2022-12-11T04:24:16.370Z,92843.47
2022-12-11T04:27:01.102Z,92857.41
2022-12-11T04:29:44.313Z,92870.88
2022-12-11T04:32:28.053Z,92877.81
2022-12-11T04:35:12.940Z,92883.91
2022-12-11T04:37:56.220Z,92890.38
2022-12-11T04:40:39.569Z,92892.00
2022-12-11T04:43:24.599Z,92903.72
2022-12-11T04:46:11.322Z,92897.44
2022-12-11T04:48:57.575Z,92898.28
2022-12-11T04:51:41.068Z,92911.34
2022-12-11T04:54:24.164Z,92891.81
2022-12-11T04:57:07.741Z,92906.91
2022-12-11T04:59:52.775Z,92889.59
2022-12-11T05:02:37.631Z,92897.34
2022-12-11T05:05:22.273Z,92890.00
2022-12-11T05:08:05.888Z,92886.03
2022-12-11T05:10:57.617Z,92893.59
2022-12-11T05:13:41.626Z,92903.59
2022-12-11T05:16:29.163Z,92901.44
2022-12-11T05:19:12.476Z,92902.09
2022-12-11T05:21:57.181Z,92902.31
2022-12-11T05:24:40.506Z,92918.28
2022-12-11T05:27:24.115Z,92907.69
2022-12-11T05:30:10.273Z,92895.31
2022-12-11T05:32:55.129Z,92899.00
2022-12-11T05:35:38.349Z,92912.19
2022-12-11T05:38:22.047Z,92892.22
2022-12-11T05:41:08.129Z,92907.09
2022-12-11T05:43:51.547Z,92884.66
2022-12-11T05:46:35.848Z,92882.69
2022-12-11T05:49:22.629Z,92861.25
2022-12-11T05:52:09.191Z,92855.59
2022-12-11T05:54:52.596Z,92868.53
2022-12-11T05:57:35.832Z,92861.06
2022-12-11T06:00:19.007Z,92862.41
2022-12-11T06:03:02.213Z,92884.81
2022-12-11T06:05:46.837Z,92866.84
2022-12-11T06:08:30.187Z,92879.06
2022-12-11T06:11:18.379Z,92868.53
2022-12-11T06:14:05.567Z,92881.09
2022-12-11T06:16:48.721Z,92877.00
2022-12-11T06:19:36.578Z,92878.91
2022-12-11T06:22:21.963Z,92877.00
2022-12-11T06:25:06.014Z,92926.47
2022-12-11T06:27:49.493Z,92904.66
2022-12-11T06:30:38.925Z,92926.25
2022-12-11T06:33:22.712Z,92942.25
2022-12-11T06:36:07.472Z,92963.19
2022-12-11T06:38:52.609Z,92972.09
2022-12-11T06:41:35.992Z,92977.97
2022-12-11T06:44:19.116Z,92961.34
2022-12-11T06:47:02.626Z,92940.47
2022-12-11T06:49:45.957Z,92944.69
2022-12-11T06:52:29.492Z,92967.88
2022-12-11T06:55:14.213Z,92971.16
2022-12-11T06:57:58.721Z,92958.09
2022-12-11T07:00:43.239Z,92970.72
2022-12-11T07:03:26.380Z,92964.00
2022-12-11T07:06:09.702Z,92956.31
2022-12-11T07:08:53.157Z,92971.41
2022-12-11T07:11:37.705Z,92983.78
2022-12-11T07:14:21.002Z,92958.84
2022-12-11T07:17:04.151Z,92951.81
2022-12-11T07:19:47.578Z,92983.59
2022-12-11T07:22:30.978Z,92983.06
2022-12-11T07:25:14.597Z,92937.63
2022-12-11T07:48:01.868Z,92996.78
2022-12-11T07:50:45.171Z,93017.63
2022-12-11T07:53:28.462Z,93000.41
2022-12-11T07:56:11.738Z,93026.69
2022-12-11T07:58:56.809Z,93006.00
2022-12-11T08:01:42.277Z,93002.56
2022-12-11T08:04:25.549Z,93000.91
2022-12-11T08:07:08.831Z,93027.63
2022-12-11T08:09:51.995Z,93012.69
2022-12-11T08:12:35.197Z,93026.41
2022-12-11T08:15:19.898Z,93019.53
2022-12-11T08:18:04.129Z,93029.09
2022-12-11T08:20:47.197Z,93011.59
2022-12-11T08:23:30.324Z,93016.28
2022-12-11T08:26:16.124Z,92989.81
2022-12-11T08:28:59.980Z,93042.84
2022-12-11T08:31:47.384Z,92996.13
2022-12-11T08:34:30.590Z,92994.03
2022-12-11T08:37:13.812Z,92991.00
2022-12-11T08:39:57.117Z,92987.19
2022-12-11T08:42:41.631Z,92993.69
2022-12-11T08:45:24.734Z,92992.44
2022-12-11T08:48:09.396Z,92982.59
2022-12-11T08:50:52.524Z,92998.75
2022-12-11T08:53:35.949Z,92985.03
2022-12-11T08:56:20.838Z,92970.44
2022-12-11T08:59:04.312Z,92980.72
2022-12-11T09:01:47.607Z,92987.97
2022-12-11T09:04:32.422Z,92985.22
2022-12-11T09:07:15.960Z,92989.44
2022-12-11T09:09:59.030Z,92972.97
2022-12-11T09:12:42.860Z,92972.44
2022-12-11T09:15:26.692Z,92974.28
2022-12-11T09:18:10.035Z,92975.84
2022-12-11T09:21:01.667Z,92956.44
2022-12-11T09:23:45.346Z,92948.63
2022-12-11T09:26:30.149Z,92947.56
2022-12-11T09:29:14.035Z,92960.28
2022-12-11T09:31:58.494Z,92946.09
2022-12-11T09:34:41.688Z,92975.31
2022-12-11T09:37:26.338Z,92956.47
2022-12-11T09:40:12.377Z,92955.38
2022-12-11T09:43:01.890Z,92945.03
2022-12-11T09:45:45.136Z,92950.09
2022-12-11T09:48:28.821Z,92948.38
2022-12-11T09:51:20.055Z,92948.25
2022-12-11T09:54:06.432Z,92957.81
2022-12-11T09:56:55.383Z,92951.94
2022-12-11T09:59:46.837Z,92943.00
2022-12-11T10:02:42.950Z,92959.31
2022-12-11T10:05:35.383Z,92962.19
2022-12-11T10:08:25.013Z,92960.22
2022-12-11T10:11:36.617Z,92954.41
2022-12-11T10:14:27.680Z,92952.84
2022-12-11T10:17:13.843Z,92961.97
2022-12-11T10:19:59.202Z,92956.53
2022-12-11T10:22:42.589Z,92958.81
2022-12-11T10:25:30.000Z,92967.59
2022-12-11T10:28:16.570Z,92960.94
2022-12-11T10:31:06.934Z,92986.44
2022-12-11T10:33:59.340Z,92969.13
2022-12-11T10:36:45.526Z,92956.97
2022-12-11T10:39:29.476Z,92958.41
2022-12-11T10:42:19.973Z,92954.13
2022-12-11T10:45:07.365Z,92944.56
2022-12-11T10:47:50.488Z,92951.72
2022-12-11T10:50:33.812Z,92942.72
2022-12-11T10:53:22.591Z,92924.19
2022-12-11T10:56:06.428Z,92932.19
2022-12-11T10:58:51.752Z,92927.09
2022-12-11T11:01:37.462Z,92921.91
2022-12-11T11:04:26.221Z,92925.28
2022-12-11T11:07:14.768Z,92924.06
2022-12-11T11:10:17.410Z,92922.53
2022-12-11T11:13:03.685Z,92921.44
2022-12-11T11:15:46.915Z,92917.75
2022-12-11T11:18:32.988Z,92918.81
2022-12-11T11:21:19.396Z,92916.19
2022-12-11T11:24:02.557Z,92922.91
2022-12-11T11:27:12.358Z,92921.97
2022-12-11T11:29:53.112Z,92916.50
2022-12-11T11:32:39.840Z,92915.47
2022-12-11T11:35:29.180Z,92910.75
2022-12-11T11:38:23.338Z,92905.31
2022-12-11T11:41:15.374Z,92904.75
2022-12-11T11:44:03.415Z,92902.25
2022-12-11T11:46:51.415Z,92913.94
2022-12-11T11:49:48.241Z,92922.41
2022-12-11T11:52:40.407Z,92910.28
2022-12-11T11:55:39.375Z,92911.50
2022-12-11T11:58:27.812Z,92899.72
2022-12-11T12:01:16.217Z,92894.72
2022-12-11T12:04:00.150Z,92891.06
2022-12-11T12:07:10.915Z,92888.41
2022-12-11T12:10:02.687Z,92887.13
2022-12-11T12:12:53.793Z,92883.69
2022-12-11T12:15:45.235Z,92884.63
2022-12-11T12:18:35.868Z,92890.19
2022-12-11T12:21:27.203Z,92885.50
2022-12-11T12:24:21.965Z,92883.66
2022-12-11T12:27:50.539Z,92888.81
2022-12-11T12:30:24.303Z,92891.16
2022-12-11T12:33:23.250Z,92900.25
2022-12-11T12:36:18.457Z,92914.84
2022-12-11T12:39:03.761Z,92920.88
2022-12-11T12:41:58.516Z,92923.13
2022-12-11T12:44:57.646Z,92924.72
2022-12-11T12:47:42.515Z,92938.59
2022-12-11T12:50:28.431Z,92949.13
2022-12-11T12:53:18.857Z,92956.09
2022-12-11T12:56:04.542Z,92952.72
2022-12-11T12:58:47.684Z,92957.53
2022-12-11T13:01:32.916Z,92977.00
2022-12-11T13:04:54.571Z,92981.47
2022-12-11T13:07:33.972Z,93012.44
2022-12-11T13:10:27.323Z,92990.31
2022-12-11T13:13:32.794Z,92997.75
2022-12-11T13:16:35.682Z,93019.69
2022-12-11T13:19:29.323Z,92997.97
2022-12-11T13:22:23.983Z,93030.53
2022-12-11T13:25:22.521Z,93023.84
2022-12-11T13:28:10.194Z,93036.63
2022-12-11T13:31:09.869Z,93042.91
2022-12-11T13:33:56.041Z,93081.03
2022-12-11T13:36:42.193Z,93074.53
2022-12-11T13:39:27.685Z,93083.84
2022-12-11T13:42:24.997Z,93104.31
2022-12-11T13:45:19.525Z,93108.72
2022-12-11T13:48:02.850Z,93125.78
2022-12-11T13:50:47.481Z,93123.66
2022-12-11T13:53:32.425Z,93124.66
2022-12-11T13:56:19.650Z,93149.47
2022-12-11T13:59:02.984Z,93137.56
2022-12-11T14:01:46.211Z,93151.44
2022-12-11T14:04:31.519Z,93152.75
2022-12-11T14:07:19.570Z,93178.88
2022-12-11T14:10:10.122Z,93183.88
2022-12-11T14:12:58.537Z,93181.78
2022-12-11T14:15:46.256Z,93183.19
2022-12-11T14:18:33.983Z,93194.50
2022-12-11T14:21:21.872Z,93190.84
2022-12-11T14:24:06.679Z,93205.69
2022-12-11T14:26:53.876Z,93197.00
2022-12-11T14:29:37.267Z,93216.75
2022-12-11T14:32:29.555Z,93218.94
2022-12-11T14:35:24.318Z,93220.63
2022-12-11T14:38:14.612Z,93217.66
2022-12-11T14:41:04.149Z,93220.81
2022-12-11T14:43:51.700Z,93231.25
2022-12-11T14:46:41.726Z,93236.19
2022-12-11T14:49:31.032Z,93243.09
2022-12-11T14:52:18.921Z,93253.09
2022-12-11T14:55:07.819Z,93259.00
2022-12-11T14:57:55.347Z,93266.41
2022-12-11T15:00:39.938Z,93264.72
2022-12-11T15:03:26.060Z,93270.81
2022-12-11T15:06:25.991Z,93274.25
2022-12-11T15:09:20.477Z,93269.34
2022-12-11T15:12:11.548Z,93271.28
2022-12-11T15:14:58.462Z,93270.84
2022-12-11T15:17:45.221Z,93269.16
2022-12-11T15:20:31.958Z,93271.28
2022-12-11T15:23:18.785Z,93277.06
2022-12-11T15:26:03.972Z,93280.63
2022-12-11T15:28:47.189Z,93288.22
2022-12-11T15:31:31.693Z,93284.22
2022-12-11T15:34:24.831Z,93286.16
2022-12-11T15:37:19.352Z,93285.91
2022-12-11T15:40:04.918Z,93291.41
2022-12-11T15:42:48.194Z,93283.41
2022-12-11T15:45:31.373Z,93278.66
2022-12-11T15:48:14.520Z,93286.69
2022-12-11T15:51:01.634Z,93278.75
2022-12-11T15:53:45.068Z,93277.00
2022-12-11T15:56:28.283Z,93287.19
2022-12-11T15:59:12.229Z,93301.31
2022-12-11T16:01:55.456Z,93291.66
2022-12-11T16:04:38.575Z,93294.91
2022-12-11T16:07:25.262Z,93296.25
2022-12-11T16:10:14.270Z,93323.22
2022-12-11T16:12:59.782Z,93317.22
2022-12-11T16:15:45.256Z,93315.75
2022-12-11T16:18:28.571Z,93324.03
2022-12-11T16:21:13.607Z,93334.34
2022-12-11T16:24:01.656Z,93346.66
2022-12-11T16:26:44.755Z,93358.50
2022-12-11T16:29:27.986Z,93354.16
2022-12-11T16:32:11.676Z,93362.44
2022-12-11T16:34:55.052Z,93372.03
2022-12-11T16:37:38.408Z,93372.38
2022-12-11T16:40:23.514Z,93385.38
2022-12-11T16:43:06.947Z,93385.59
2022-12-11T16:45:56.063Z,93380.34
2022-12-11T16:48:39.452Z,93382.47
2022-12-11T16:51:22.873Z,93385.03
2022-12-11T16:54:06.979Z,93391.84
2022-12-11T16:56:51.802Z,93399.91
2022-12-11T16:59:37.398Z,93391.31
2022-12-11T17:02:21.492Z,93400.03
2022-12-11T17:05:05.284Z,93405.94
2022-12-11T17:07:48.477Z,93405.50
2022-12-11T17:10:31.842Z,93400.56
2022-12-11T17:13:16.490Z,93398.25
2022-12-11T17:15:59.704Z,93394.00
2022-12-11T17:18:43.798Z,93403.84
2022-12-11T17:21:26.935Z,93404.28
2022-12-11T17:24:10.760Z,93409.53
2022-12-11T17:26:54.200Z,93414.94
2022-12-11T17:29:38.774Z,93429.69
2022-12-11T17:32:22.050Z,93456.66
2022-12-11T17:35:05.676Z,93457.75
2022-12-11T17:37:48.736Z,93460.44
2022-12-11T17:40:32.439Z,93449.50
2022-12-11T17:43:15.584Z,93445.78
2022-12-11T17:46:00.262Z,93436.16
2022-12-11T17:48:44.700Z,93450.44
2022-12-11T17:51:28.836Z,93451.09
2022-12-11T17:54:14.843Z,93454.88
2022-12-11T17:56:58.114Z,93457.75
2022-12-11T17:59:41.376Z,93456.63
2022-12-11T18:02:26.350Z,93456.91
2022-12-11T18:05:09.942Z,93442.38
2022-12-11T18:07:57.731Z,93454.06
2022-12-11T18:10:41.474Z,93463.53
2022-12-11T18:13:25.502Z,93466.94
2022-12-11T18:16:11.733Z,93466.22
2022-12-11T18:18:57.754Z,93464.75
2022-12-11T18:21:43.838Z,93460.19
2022-12-11T18:24:31.760Z,93469.00
2022-12-11T18:27:15.305Z,93462.09
2022-12-11T18:29:58.467Z,93458.22
2022-12-11T18:32:41.502Z,93456.94
2022-12-11T18:35:26.709Z,93458.22
2022-12-11T18:38:10.404Z,93461.28
2022-12-11T18:40:53.538Z,93475.63
2022-12-11T18:43:37.021Z,93473.75
2022-12-11T18:46:22.507Z,93473.34
2022-12-11T18:49:05.966Z,93481.50
2022-12-11T18:51:51.155Z,93481.56
2022-12-11T18:54:34.746Z,93491.06
2022-12-11T18:57:17.897Z,93489.78
2022-12-11T19:00:07.529Z,93492.78
2022-12-11T19:02:52.701Z,93491.50
2022-12-11T19:05:42.411Z,93489.31
2022-12-11T19:08:27.700Z,93492.13
2022-12-11T19:11:14.772Z,93491.28
2022-12-11T19:13:58.818Z,93486.94
2022-12-11T19:16:45.464Z,93490.91
2022-12-11T19:19:28.914Z,93490.78
2022-12-11T19:22:12.027Z,93495.28
2022-12-11T19:24:56.850Z,93506.31
2022-12-11T19:27:39.973Z,93507.06
2022-12-11T19:30:23.367Z,93512.47
2022-12-11T19:33:06.718Z,93515.16
2022-12-11T19:35:49.983Z,93522.28
2022-12-11T19:38:33.175Z,93526.63
2022-12-11T19:41:20.612Z,93535.34
2022-12-11T19:44:03.825Z,93536.75
2022-12-11T19:46:47.204Z,93547.53
2022-12-11T19:49:33.695Z,93544.84
2022-12-11T19:52:17.250Z,93542.44
2022-12-11T19:55:03.182Z,93550.84
2022-12-11T19:57:48.073Z,93556.41
2022-12-11T20:00:31.365Z,93545.66
2022-12-11T20:03:14.970Z,93542.88
2022-12-11T20:06:02.510Z,93537.94
2022-12-11T20:08:46.185Z,93532.38
2022-12-11T20:11:29.807Z,93540.72
2022-12-11T20:14:21.330Z,93523.31
2022-12-11T20:17:14.215Z,93530.28
2022-12-11T20:19:57.866Z,93544.06
2022-12-11T20:22:41.258Z,93542.94
2022-12-11T20:25:26.057Z,93541.16
2022-12-11T20:28:10.134Z,93540.97
2022-12-11T20:30:55.554Z,93546.78
2022-12-11T20:33:39.062Z,93547.34
2022-12-11T20:36:23.758Z,93542.81
2022-12-11T20:39:07.399Z,93536.81
2022-12-11T20:41:50.706Z,93541.69
2022-12-11T20:44:33.930Z,93538.84
2022-12-11T20:47:19.934Z,93545.97
2022-12-11T20:50:03.891Z,93555.63
2022-12-11T20:52:47.334Z,93553.09
2022-12-11T20:55:30.510Z,93539.06
2022-12-11T20:58:13.651Z,93544.28
2022-12-11T21:00:57.624Z,93549.97
2022-12-11T21:03:42.520Z,93554.56
2022-12-11T21:06:28.506Z,93542.66
2022-12-11T21:09:14.880Z,93548.41
2022-12-11T21:11:58.716Z,93547.78
2022-12-11T21:14:42.379Z,93560.25
2022-12-11T21:17:25.720Z,93545.00
2022-12-11T21:20:12.203Z,93548.28
2022-12-11T21:22:57.660Z,93555.44
2022-12-11T21:25:41.438Z,93566.81
2022-12-11T21:28:24.928Z,93560.47
2022-12-11T21:31:12.997Z,93550.84
2022-12-11T21:33:58.472Z,93554.41
2022-12-11T21:36:45.475Z,93561.00
2022-12-11T21:39:31.630Z,93563.28
2022-12-11T21:42:18.229Z,93555.03
2022-12-11T21:48:04.910Z,93556.44
2022-12-11T21:50:48.076Z,93554.22
2022-12-11T21:53:32.610Z,93558.22
2022-12-11T21:56:18.743Z,93554.66
2022-12-11T21:59:02.559Z,93550.53
2022-12-11T22:01:47.213Z,93560.66
2022-12-11T22:04:30.259Z,93564.84
2022-12-11T22:07:13.258Z,93570.56
2022-12-11T22:09:58.132Z,93568.53
2022-12-11T22:12:41.274Z,93565.25
2022-12-11T22:15:24.624Z,93568.13
2022-12-11T22:18:08.039Z,93564.91
2022-12-11T22:20:51.216Z,93558.69
2022-12-11T22:23:35.773Z,93554.28
2022-12-11T22:26:22.402Z,93558.75
2022-12-11T22:29:05.529Z,93566.41
2022-12-11T22:31:48.663Z,93573.19
2022-12-11T22:34:31.834Z,93579.31
2022-12-11T22:37:14.899Z,93579.53
2022-12-11T22:39:58.019Z,93578.88
2022-12-11T22:42:44.157Z,93582.63
2022-12-11T22:45:27.343Z,93587.53
2022-12-11T22:48:11.050Z,93592.66
2022-12-11T22:50:54.724Z,93596.13
2022-12-11T22:53:37.814Z,93597.09
2022-12-11T22:56:20.858Z,93606.44
2022-12-11T22:59:05.395Z,93594.66
2022-12-11T23:01:48.739Z,93599.50
2022-12-11T23:04:31.918Z,93598.78
2022-12-11T23:07:15.005Z,93592.75
2022-12-11T23:09:58.083Z,93595.97
2022-12-11T23:12:41.197Z,93601.03
2022-12-11T23:15:25.802Z,93614.13
2022-12-11T23:18:08.942Z,93599.50
2022-12-11T23:20:51.991Z,93593.00
2022-12-11T23:23:35.129Z,93613.66
2022-12-11T23:26:19.835Z,93612.00
2022-12-11T23:29:03.458Z,93597.03
2022-12-11T23:31:48.008Z,93611.16
2022-12-11T23:34:31.171Z,93617.88
2022-12-11T23:37:14.532Z,93618.66
2022-12-11T23:39:57.750Z,93617.41
2022-12-11T23:42:40.882Z,93619.00
2022-12-11T23:45:24.108Z,93625.22
2022-12-11T23:48:08.562Z,93628.50
2022-12-11T23:50:51.598Z,93642.34
2022-12-11T23:53:34.836Z,93647.56
2022-12-11T23:56:20.391Z,93668.38
2022-12-11T23:59:03.499Z,93663.25
